createdAt,value
2022-11-29T00:01:14.856Z,19.50
2022-11-29T00:03:42.662Z,19.33
2022-11-29T00:06:12.999Z,20.90
2022-11-29T00:08:41.885Z,19.67
2022-11-29T00:11:15.108Z,19.33
2022-11-29T00:13:42.197Z,21.35
2022-11-29T00:16:12.811Z,21.00
2022-11-29T00:18:40.211Z,21.37
2022-11-29T00:21:09.153Z,21.80
2022-11-29T00:23:36.670Z,19.70
2022-11-29T00:26:05.703Z,19.53
2022-11-29T00:28:33.546Z,19.47
2022-11-29T00:31:01.390Z,20.40
2022-11-29T00:33:29.423Z,23.30
2022-11-29T00:36:00.544Z,21.33
2022-11-29T00:38:28.523Z,20.10
2022-11-29T00:40:55.796Z,19.83
2022-11-29T00:43:22.903Z,21.00
2022-11-29T00:45:50.150Z,21.23
2022-11-29T00:48:17.560Z,18.83
2022-11-29T00:50:45.015Z,19.87
2022-11-29T00:53:12.506Z,21.63
2022-11-29T00:55:39.732Z,20.47
2022-11-29T00:58:07.199Z,20.50
2022-11-29T01:00:34.628Z,20.90
2022-11-29T01:03:03.047Z,18.97
2022-11-29T01:05:31.893Z,20.27
2022-11-29T01:07:59.573Z,21.73
2022-11-29T01:10:26.819Z,20.43
2022-11-29T01:12:55.115Z,19.87
2022-11-29T01:15:23.007Z,22.23
2022-11-29T01:17:50.515Z,19.43
2022-11-29T01:20:17.843Z,20.90
2022-11-29T01:22:44.988Z,20.60
2022-11-29T01:25:14.104Z,21.00
2022-11-29T01:27:42.206Z,19.40
2022-11-29T01:30:10.746Z,19.80
2022-11-29T01:32:38.218Z,19.70
2022-11-29T01:35:07.227Z,19.43
2022-11-29T01:37:34.628Z,19.73
2022-11-29T01:40:02.475Z,19.83
2022-11-29T01:42:29.329Z,20.77
2022-11-29T01:45:07.587Z,20.63
2022-11-29T01:50:23.330Z,17.77
2022-11-29T01:52:50.695Z,19.43
2022-11-29T01:55:19.228Z,20.10
2022-11-29T01:57:47.742Z,20.33
2022-11-29T02:00:18.964Z,21.27
2022-11-29T02:03:02.422Z,18.63
2022-11-29T02:05:30.311Z,16.88
2022-11-29T02:07:59.632Z,20.70
2022-11-29T02:10:45.545Z,18.43
2022-11-29T02:13:15.450Z,18.63
2022-11-29T02:16:08.677Z,19.43
2022-11-29T02:18:58.141Z,20.43
2022-11-29T02:21:55.863Z,18.33
2022-11-29T02:24:31.729Z,17.90
2022-11-29T02:27:17.733Z,18.07
2022-11-29T02:29:44.872Z,19.70
2022-11-29T02:32:45.947Z,19.37
2022-11-29T02:35:18.152Z,19.10
2022-11-29T02:38:22.562Z,19.27
2022-11-29T02:40:55.765Z,20.20
2022-11-29T02:43:45.229Z,18.30
2022-11-29T02:46:45.468Z,19.53
2022-11-29T02:49:33.995Z,18.13
2022-11-29T02:52:11.189Z,20.03
2022-11-29T02:55:04.947Z,19.33
2022-11-29T02:57:49.241Z,19.65
2022-11-29T03:00:21.650Z,20.50
2022-11-29T03:02:52.754Z,18.60
2022-11-29T03:05:24.590Z,19.63
2022-11-29T03:08:14.148Z,20.07
2022-11-29T03:11:04.461Z,21.03
2022-11-29T03:13:37.928Z,19.57
2022-11-29T03:16:44.837Z,19.08
2022-11-29T03:19:39.094Z,18.03
2022-11-29T03:24:56.473Z,18.87
2022-11-29T03:27:47.318Z,20.17
2022-11-29T03:30:19.752Z,21.10
2022-11-29T03:33:24.761Z,19.93
2022-11-29T03:36:09.539Z,19.77
2022-11-29T03:38:45.616Z,19.40
2022-11-29T03:41:32.772Z,19.07
2022-11-29T03:44:09.022Z,20.73
2022-11-29T03:47:08.855Z,20.37
2022-11-29T03:49:45.776Z,21.80
2022-11-29T03:52:34.508Z,20.07
2022-11-29T03:55:23.152Z,19.67
2022-11-29T03:58:08.927Z,20.50
2022-11-29T04:00:51.154Z,20.17
2022-11-29T04:03:46.265Z,18.43
2022-11-29T04:06:36.996Z,20.33
2022-11-29T04:09:22.578Z,20.97
2022-11-29T04:12:11.118Z,20.33
2022-11-29T04:15:08.780Z,20.47
2022-11-29T04:18:13.056Z,20.40
2022-11-29T04:20:55.198Z,21.13
2022-11-29T04:23:51.903Z,23.00
2022-11-29T04:26:22.031Z,20.00
2022-11-29T04:29:08.587Z,20.73
2022-11-29T04:31:46.476Z,19.63
2022-11-29T04:34:35.015Z,19.53
2022-11-29T04:37:32.629Z,19.93
2022-11-29T04:40:28.371Z,18.70
2022-11-29T04:43:17.133Z,19.33
2022-11-29T04:46:05.232Z,19.93
2022-11-29T04:49:09.713Z,20.77
2022-11-29T04:51:54.299Z,22.52
2022-11-29T04:54:46.192Z,20.00
2022-11-29T04:57:27.834Z,20.53
2022-11-29T05:00:30.225Z,18.77
2022-11-29T05:03:14.009Z,17.83
2022-11-29T05:05:43.775Z,19.67
2022-11-29T05:08:56.917Z,21.67
2022-11-29T05:11:50.604Z,19.43
2022-11-29T05:14:27.570Z,19.83
2022-11-29T05:17:40.625Z,17.13
2022-11-29T05:20:19.777Z,16.57
2022-11-29T05:23:05.552Z,19.30
2022-11-29T05:25:55.902Z,19.03
2022-11-29T05:28:34.183Z,16.83
2022-11-29T05:31:19.686Z,20.07
2022-11-29T05:34:31.669Z,18.50
2022-11-29T05:37:52.050Z,18.37
2022-11-29T05:40:37.780Z,19.63
2022-11-29T05:43:22.865Z,20.33
2022-11-29T05:45:58.189Z,19.27
2022-11-29T05:48:29.523Z,18.70
2022-11-29T05:51:33.937Z,19.80
2022-11-29T05:54:07.313Z,20.42
2022-11-29T05:56:43.762Z,20.83
2022-11-29T05:59:19.342Z,21.67
2022-11-29T06:02:10.159Z,19.90
2022-11-29T06:05:08.250Z,20.37
2022-11-29T06:07:45.902Z,19.90
2022-11-29T06:10:18.185Z,18.90
2022-11-29T06:13:22.372Z,19.83
2022-11-29T06:15:58.435Z,17.50
2022-11-29T06:18:40.593Z,18.93
2022-11-29T06:21:28.057Z,19.87
2022-11-29T06:24:09.291Z,16.87
2022-11-29T06:26:42.293Z,19.43
2022-11-29T06:29:41.420Z,19.80
2022-11-29T06:32:37.614Z,18.50
2022-11-29T06:35:12.038Z,19.47
2022-11-29T06:37:44.504Z,18.87
2022-11-29T06:40:16.205Z,20.70
2022-11-29T06:42:45.097Z,19.53
2022-11-29T06:45:16.100Z,18.40
2022-11-29T06:47:46.584Z,18.73
2022-11-29T06:50:29.096Z,19.80
2022-11-29T06:53:21.361Z,19.33
2022-11-29T06:56:13.970Z,19.70
2022-11-29T06:58:43.926Z,18.77
2022-11-29T07:01:14.248Z,17.57
2022-11-29T07:04:20.140Z,18.63
2022-11-29T07:06:48.082Z,17.43
2022-11-29T07:09:18.951Z,19.13
2022-11-29T07:11:47.924Z,19.57
2022-11-29T07:14:15.737Z,19.03
2022-11-29T07:17:02.476Z,18.90
2022-11-29T07:20:18.807Z,17.63
2022-11-29T07:23:06.242Z,15.07
2022-11-29T07:25:59.189Z,18.57
2022-11-29T07:28:26.715Z,16.47
2022-11-29T07:31:02.848Z,17.70
2022-11-29T07:33:47.885Z,19.03
2022-11-29T07:36:26.447Z,18.73
2022-11-29T07:39:08.712Z,17.77
2022-11-29T07:51:42.643Z,17.20
2022-11-29T07:54:13.876Z,19.93
2022-11-29T07:56:40.410Z,19.60
2022-11-29T07:59:11.512Z,19.87
2022-11-29T08:01:38.994Z,19.63
2022-11-29T08:04:06.539Z,19.43
2022-11-29T08:06:33.584Z,18.47
2022-11-29T08:09:01.793Z,17.83
2022-11-29T08:11:29.537Z,17.57
2022-11-29T08:14:02.293Z,17.40
2022-11-29T08:16:30.260Z,20.00
2022-11-29T08:18:57.678Z,18.13
2022-11-29T08:21:25.183Z,17.57
2022-11-29T08:23:52.128Z,21.67
2022-11-29T08:26:22.764Z,20.33
2022-11-29T08:28:56.672Z,19.60
2022-11-29T08:31:23.271Z,19.93
2022-11-29T08:33:49.836Z,17.83
2022-11-29T08:36:19.025Z,18.30
2022-11-29T08:38:46.911Z,18.17
2022-11-29T08:41:16.344Z,19.20
2022-11-29T08:43:44.444Z,19.23
2022-11-29T08:46:16.924Z,16.97
2022-11-29T08:48:46.452Z,18.27
2022-11-29T08:51:14.650Z,25.77
2022-11-29T08:53:42.126Z,19.13
2022-11-29T08:59:06.915Z,19.50
2022-11-29T09:01:34.326Z,17.93
2022-11-29T09:04:05.188Z,19.67
2022-11-29T09:06:41.028Z,25.70
2022-11-29T09:09:08.661Z,18.67
2022-11-29T09:11:36.779Z,21.93
2022-11-29T09:14:06.510Z,20.17
2022-11-29T09:16:36.597Z,20.87
2022-11-29T09:19:05.345Z,19.43
2022-11-29T09:21:35.343Z,20.67
2022-11-29T09:24:06.638Z,20.27
2022-11-29T09:26:36.466Z,20.60
2022-11-29T09:29:05.905Z,16.87
2022-11-29T09:31:34.822Z,20.63
2022-11-29T09:34:02.895Z,19.77
2022-11-29T09:36:31.785Z,19.43
2022-11-29T09:39:03.269Z,20.03
2022-11-29T09:41:59.016Z,20.00
2022-11-29T09:45:01.298Z,18.93
2022-11-29T09:48:19.655Z,19.37
2022-11-29T09:51:02.909Z,18.53
2022-11-29T09:53:55.132Z,19.55
2022-11-29T09:56:30.857Z,18.13
2022-11-29T09:59:11.613Z,17.40
2022-11-29T10:01:46.525Z,18.42
2022-11-29T10:04:21.927Z,17.27
2022-11-29T10:07:15.118Z,18.60
2022-11-29T10:09:49.116Z,23.93
2022-11-29T10:12:41.143Z,20.38
2022-11-29T10:15:17.398Z,17.20
2022-11-29T10:18:31.144Z,17.87
2022-11-29T10:21:05.155Z,18.90
2022-11-29T10:23:37.664Z,17.33
2022-11-29T10:26:08.397Z,18.20
2022-11-29T10:28:37.479Z,17.27
2022-11-29T10:31:16.854Z,19.27
2022-11-29T10:33:46.002Z,18.47
2022-11-29T10:36:25.937Z,18.03
2022-11-29T10:39:00.176Z,21.27
2022-11-29T10:41:27.832Z,20.33
2022-11-29T10:43:58.317Z,18.97
2022-11-29T10:46:35.464Z,18.33
2022-11-29T10:49:05.693Z,17.43
2022-11-29T10:51:35.281Z,16.50
2022-11-29T10:54:24.308Z,16.60
2022-11-29T10:56:52.549Z,19.87
2022-11-29T10:59:25.718Z,16.80
2022-11-29T11:02:02.518Z,12.27
2022-11-29T11:04:43.264Z,19.70
2022-11-29T11:07:28.288Z,17.27
2022-11-29T11:09:58.139Z,19.80
2022-11-29T11:12:30.957Z,20.90
2022-11-29T11:15:37.291Z,21.63
2022-11-29T11:18:07.138Z,18.77
2022-11-29T11:20:38.781Z,19.03
2022-11-29T11:23:30.986Z,20.20
2022-11-29T11:26:11.143Z,18.90
2022-11-29T11:28:53.262Z,21.60
2022-11-29T11:31:38.700Z,17.57
2022-11-29T11:34:50.728Z,23.40
2022-11-29T11:37:29.407Z,19.57
2022-11-29T11:40:18.732Z,21.23
2022-11-29T11:42:46.817Z,19.87
2022-11-29T11:45:14.245Z,19.77
2022-11-29T11:47:52.533Z,19.03
2022-11-29T11:50:52.691Z,18.97
2022-11-29T11:53:24.598Z,17.83
2022-11-29T11:55:54.843Z,18.17
2022-11-29T11:58:27.532Z,16.57
2022-11-29T12:01:05.314Z,16.93
2022-11-29T12:03:51.550Z,18.77
2022-11-29T12:06:30.149Z,17.87
2022-11-29T12:09:04.551Z,19.03
2022-11-29T12:11:52.751Z,20.27
2022-11-29T12:14:33.451Z,18.17
2022-11-29T12:17:10.055Z,19.10
2022-11-29T12:19:50.252Z,16.10
2022-11-29T12:22:26.017Z,18.35
2022-11-29T12:25:03.124Z,18.40
2022-11-29T12:27:32.042Z,19.37
2022-11-29T12:29:59.380Z,17.83
2022-11-29T12:32:43.138Z,19.67
2022-11-29T12:35:38.300Z,19.42
2022-11-29T12:38:11.442Z,17.70
2022-11-29T12:41:00.687Z,17.63
2022-11-29T12:43:49.387Z,19.57
2022-11-29T12:46:28.055Z,20.73
2022-11-29T12:49:16.925Z,16.53
2022-11-29T12:51:55.941Z,20.13
2022-11-29T12:54:43.684Z,16.57
2022-11-29T12:57:30.024Z,18.10
2022-11-29T13:00:07.661Z,17.37
2022-11-29T13:03:25.319Z,18.53
2022-11-29T13:06:40.251Z,17.03
2022-11-29T13:12:23.991Z,16.10
2022-11-29T13:15:02.883Z,16.90
2022-11-29T13:18:04.162Z,15.07
2022-11-29T13:20:38.027Z,16.47
2022-11-29T13:26:34.454Z,16.83
2022-11-29T13:29:03.527Z,19.23
2022-11-29T13:31:31.469Z,16.90
2022-11-29T13:34:06.587Z,15.83
2022-11-29T13:36:52.447Z,16.67
2022-11-29T13:39:37.761Z,16.93
2022-11-29T13:42:25.876Z,16.23
2022-11-29T13:44:57.761Z,15.93
2022-11-29T13:47:25.360Z,15.83
2022-11-29T13:49:57.664Z,15.30
2022-11-29T13:52:29.914Z,15.50
2022-11-29T13:55:29.014Z,14.03
2022-11-29T13:58:17.725Z,16.57
2022-11-29T14:00:45.359Z,16.40
2022-11-29T14:03:25.291Z,14.17
2022-11-29T14:05:53.479Z,14.73
2022-11-29T14:12:04.706Z,18.60
2022-11-29T14:22:07.771Z,17.20
2022-11-29T14:24:34.874Z,16.27
2022-11-29T14:27:10.495Z,16.73
2022-11-29T14:29:55.450Z,19.03
2022-11-29T14:32:28.106Z,18.73
2022-11-29T14:35:01.099Z,17.50
2022-11-29T14:37:54.383Z,18.60
2022-11-29T14:40:43.054Z,17.42
2022-11-29T14:43:33.451Z,19.23
2022-11-29T14:46:29.433Z,17.93
2022-11-29T14:48:57.049Z,19.77
2022-11-29T14:51:28.193Z,19.43
2022-11-29T14:54:16.568Z,17.33
2022-11-29T14:56:45.406Z,17.67
2022-11-29T14:59:52.004Z,17.70
2022-11-29T15:02:25.771Z,17.17
2022-11-29T15:04:56.956Z,16.87
2022-11-29T15:08:07.152Z,19.40
2022-11-29T15:11:10.618Z,20.17
2022-11-29T15:13:55.015Z,18.13
2022-11-29T15:16:56.152Z,18.63
2022-11-29T15:19:54.200Z,19.40
2022-11-29T15:22:43.677Z,18.97
2022-11-29T15:25:26.495Z,19.77
2022-11-29T15:27:58.458Z,21.23
2022-11-29T15:30:32.402Z,22.80
2022-11-29T15:33:01.491Z,24.60
2022-11-29T15:35:29.456Z,22.60
2022-11-29T15:37:57.187Z,23.40
2022-11-29T15:40:31.701Z,22.27
2022-11-29T15:43:12.180Z,21.60
2022-11-29T15:45:40.021Z,22.53
2022-11-29T15:48:22.454Z,19.77
2022-11-29T15:51:24.790Z,21.23
2022-11-29T15:54:18.862Z,20.97
2022-11-29T15:56:53.755Z,19.50
2022-11-29T15:59:36.951Z,21.10
2022-11-29T16:02:26.913Z,20.15
2022-11-29T16:04:58.645Z,20.03
2022-11-29T16:07:32.687Z,18.53
2022-11-29T16:10:11.072Z,19.73
2022-11-29T16:12:54.832Z,20.47
2022-11-29T16:15:34.645Z,19.77
2022-11-29T16:18:24.739Z,21.10
2022-11-29T16:21:03.711Z,26.37
2022-11-29T16:23:39.778Z,37.87
2022-11-29T16:26:34.014Z,36.47
2022-11-29T16:31:37.571Z,30.40
2022-11-29T16:34:24.564Z,23.70
2022-11-29T16:37:04.365Z,23.60
2022-11-29T16:39:32.578Z,25.20
2022-11-29T16:42:26.053Z,27.33
2022-11-29T16:45:07.751Z,33.15
2022-11-29T16:47:53.318Z,28.27
2022-11-29T16:50:23.594Z,25.60
2022-11-29T16:52:56.289Z,26.00
2022-11-29T16:55:23.825Z,25.98
2022-11-29T16:57:52.481Z,24.30
2022-11-29T17:00:32.611Z,25.80
2022-11-29T17:03:00.261Z,24.40
2022-11-29T17:05:27.963Z,21.97
2022-11-29T17:12:08.537Z,23.23
2022-11-29T17:14:35.470Z,23.15
2022-11-29T17:17:02.730Z,21.10
2022-11-29T17:19:30.610Z,23.03
2022-11-29T17:21:58.296Z,22.10
2022-11-29T17:24:25.528Z,22.13
2022-11-29T17:26:52.789Z,24.50
2022-11-29T17:29:20.401Z,23.77
2022-11-29T17:31:50.737Z,23.70
2022-11-29T17:34:18.341Z,21.27
2022-11-29T17:36:45.876Z,21.13
2022-11-29T17:39:13.994Z,22.13
2022-11-29T17:41:41.227Z,23.33
2022-11-29T17:44:08.533Z,23.83
2022-11-29T17:46:37.346Z,21.93
2022-11-29T17:49:07.360Z,22.93
2022-11-29T17:51:54.275Z,23.07
2022-11-29T17:54:24.837Z,21.87
2022-11-29T17:56:52.643Z,21.77
2022-11-29T17:59:20.154Z,24.37
2022-11-29T18:01:50.471Z,23.80
2022-11-29T18:04:17.961Z,26.63
2022-11-29T18:06:50.497Z,26.00
2022-11-29T18:09:19.862Z,22.57
2022-11-29T18:11:50.091Z,23.17
2022-11-29T18:14:24.314Z,22.23
2022-11-29T18:16:52.668Z,22.73
2022-11-29T18:19:22.246Z,23.80
2022-11-29T18:21:50.727Z,22.47
2022-11-29T18:24:18.694Z,21.83
2022-11-29T18:26:46.251Z,24.47
2022-11-29T18:29:13.643Z,25.23
2022-11-29T18:31:44.333Z,29.53
2022-11-29T18:34:13.626Z,26.53
2022-11-29T18:36:46.792Z,27.63
2022-11-29T18:39:16.917Z,26.52
2022-11-29T18:41:46.540Z,25.67
2022-11-29T18:44:15.731Z,26.23
2022-11-29T18:46:44.555Z,23.00
2022-11-29T18:49:14.839Z,25.37
2022-11-29T18:51:45.498Z,23.70
2022-11-29T18:54:14.868Z,23.97
2022-11-29T18:56:42.563Z,23.90
2022-11-29T18:59:17.348Z,20.40
2022-11-29T19:01:48.460Z,21.77
2022-11-29T19:04:19.267Z,22.43
2022-11-29T19:06:46.876Z,21.20
2022-11-29T19:09:17.833Z,23.33
2022-11-29T19:11:45.267Z,24.87
2022-11-29T19:14:13.329Z,31.03
2022-11-29T19:16:44.101Z,24.07
2022-11-29T19:19:12.426Z,22.27
2022-11-29T19:21:40.503Z,22.33
2022-11-29T19:24:14.537Z,22.73
2022-11-29T19:26:46.764Z,24.03
2022-11-29T19:29:15.585Z,23.57
2022-11-29T19:31:43.409Z,22.07
2022-11-29T19:34:11.501Z,23.03
2022-11-29T19:36:44.140Z,24.60
2022-11-29T19:39:16.778Z,23.48
2022-11-29T19:41:46.813Z,23.03
2022-11-29T19:44:14.303Z,22.57
2022-11-29T19:46:44.627Z,24.50
2022-11-29T19:49:13.059Z,24.10
2022-11-29T19:51:40.874Z,27.30
2022-11-29T19:54:10.170Z,26.00
2022-11-29T19:56:38.648Z,25.33
2022-11-29T19:59:07.205Z,26.17
2022-11-29T20:01:43.432Z,25.27
2022-11-29T20:04:13.811Z,23.37
2022-11-29T20:06:42.081Z,23.67
2022-11-29T20:09:12.939Z,24.90
2022-11-29T20:11:40.449Z,23.60
2022-11-29T20:14:09.255Z,25.90
2022-11-29T20:16:38.376Z,27.23
2022-11-29T20:19:18.332Z,26.07
2022-11-29T20:21:49.482Z,25.10
2022-11-29T20:24:17.829Z,25.80
2022-11-29T20:26:47.611Z,26.03
2022-11-29T20:29:16.074Z,25.50
2022-11-29T20:31:50.141Z,26.70
2022-11-29T20:34:18.735Z,25.57
2022-11-29T20:36:52.128Z,25.20
2022-11-29T20:40:00.364Z,23.08
2022-11-29T20:42:49.716Z,22.07
2022-11-29T20:45:17.511Z,22.30
2022-11-29T20:48:03.243Z,21.63
2022-11-29T20:50:32.257Z,22.47
2022-11-29T20:53:27.474Z,21.53
2022-11-29T20:55:54.687Z,22.13
2022-11-29T20:58:22.128Z,21.93
2022-11-29T21:00:49.355Z,24.30
2022-11-29T21:03:18.451Z,22.77
2022-11-29T21:05:48.506Z,21.83
2022-11-29T21:08:17.611Z,21.83
2022-11-29T21:10:46.314Z,22.90
2022-11-29T21:13:15.105Z,22.43
2022-11-29T21:15:43.682Z,21.07
2022-11-29T21:18:26.859Z,21.67
2022-11-29T21:21:25.479Z,22.13
2022-11-29T21:24:07.225Z,21.40
2022-11-29T21:26:42.209Z,20.43
2022-11-29T21:29:22.240Z,22.13
2022-11-29T21:31:53.062Z,21.90
2022-11-29T21:34:21.428Z,21.67
2022-11-29T21:36:57.862Z,19.43
2022-11-29T21:39:31.933Z,20.30
2022-11-29T21:41:59.334Z,20.00
2022-11-29T21:44:26.943Z,19.57
2022-11-29T21:46:57.181Z,19.57
2022-11-29T21:49:24.767Z,21.03
2022-11-29T21:51:52.434Z,20.20
2022-11-29T21:54:19.820Z,20.93
2022-11-29T21:56:47.244Z,21.10
2022-11-29T21:59:14.447Z,21.10
2022-11-29T22:01:42.101Z,21.27
2022-11-29T22:04:09.884Z,23.73
2022-11-29T22:06:37.692Z,25.30
2022-11-29T22:09:05.829Z,21.40
2022-11-29T22:11:34.716Z,22.50
2022-11-29T22:14:14.209Z,20.97
2022-11-29T22:16:43.248Z,20.03
2022-11-29T22:19:14.962Z,22.50
2022-11-29T22:21:44.957Z,21.93
2022-11-29T22:24:14.508Z,21.27
2022-11-29T22:26:43.915Z,22.67
2022-11-29T22:29:14.793Z,21.30
2022-11-29T22:31:43.595Z,20.90
2022-11-29T22:34:11.781Z,22.53
2022-11-29T22:36:39.892Z,21.20
2022-11-29T22:39:08.202Z,21.60
2022-11-29T22:41:36.849Z,24.43
2022-11-29T22:44:04.548Z,21.80
2022-11-29T22:46:32.425Z,24.13
2022-11-29T22:49:03.422Z,22.50
2022-11-29T22:51:35.758Z,21.67
2022-11-29T22:54:06.204Z,21.53
2022-11-29T22:56:39.348Z,21.63
2022-11-29T22:59:06.700Z,21.95
2022-11-29T23:01:36.442Z,20.07
2022-11-29T23:04:06.392Z,22.23
2022-11-29T23:06:40.872Z,21.77
2022-11-29T23:09:16.852Z,20.97
2022-11-29T23:11:45.955Z,21.73
2022-11-29T23:14:13.688Z,20.40
2022-11-29T23:16:41.427Z,20.50
2022-11-29T23:19:10.825Z,20.70
2022-11-29T23:21:42.992Z,19.23
2022-11-29T23:24:10.743Z,20.93
2022-11-29T23:26:40.958Z,20.30
2022-11-29T23:29:11.411Z,20.67
2022-11-29T23:31:39.276Z,20.07
2022-11-29T23:34:06.946Z,21.27
2022-11-29T23:36:34.714Z,19.47
2022-11-29T23:39:01.932Z,24.23
2022-11-29T23:41:29.176Z,21.10
2022-11-29T23:43:56.698Z,22.13
2022-11-29T23:46:25.145Z,23.57
2022-11-29T23:48:53.168Z,22.30
2022-11-29T23:51:21.121Z,23.00
2022-11-29T23:53:53.462Z,23.37
2022-11-29T23:56:22.246Z,24.17
2022-11-29T23:58:49.898Z,23.53
